METAR AND TAF INFORMATION
METAR FOR LEMH
ADDS - METARS form results

(2154 UTC 20 February 2020)
Data provider http://aviationweather.gov/metar/data/
 
METAR text: LEMH 202130Z AUTO 05004KT CAVOK 09/06 Q1027
Conditions at: LEMH (MAHON/MENORCA IS, ES) observed 2130 UTC 20 February 2020
Temperature: 9.0°C (48°F)
Dewpoint: 6.0°C (43°F) [RH = 81%]
Pressure (altimeter): 30.32 inches Hg (1027.0 mb)
Winds: from the NE (50 degrees) at 5 MPH (4 knots; 2.1 m/s)
Visibility: 6 or more miles (10+ km)
Ceiling: ceiling and visibility are OK
Clouds: unknown
Weather: no significant weather observed at this time

METAR text: LEMH 202100Z 06003KT 9999 FEW024 11/07 Q1027
Conditions at: LEMH (MAHON/MENORCA IS, ES) observed 2100 UTC 20 February 2020
Temperature: 11.0°C (52°F)
Dewpoint: 7.0°C (45°F) [RH = 76%]
Pressure (altimeter): 30.32 inches Hg (1027.0 mb)
Winds: from the ENE (60 degrees) at 3 MPH (3 knots; 1.5 m/s)
Visibility: 6 or more miles (10+ km)
Ceiling: at least 12,000 feet AGL
Clouds: few clouds at 2400 feet AGL
Weather: no significant weather observed at this time

Forecast for: LEMH (MAHON/MENORCA IS, ES)
Text: TAF LEMH 202000Z 2021/2121 VRB04KT 9999 FEW010 SCT020 TX16/2113Z TN06/2106Z
Forecast period: 2100 UTC 20 February 2020 to 0000 UTC 21 February 2020
Forecast type: FROM: standard forecast or significant change
Winds: variable direction winds at 5 MPH (4 knots; 2.1 m/s)
Visibility: 6 or more miles 10+ km)
Ceiling: at least 12,000 feet AGL
Clouds: few clouds at 1000 feet AGL
scattered clouds at 2000 feet AGL
Weather: no significant weather forecast for this period
Text: BECMG 2100/2102 01010KT
Forecast period: 0000 to 2100 UTC 21 February 2020
Forecast type: BECOMING: Conditions expected to become as follows by 0200 UTC 21 February 2020
Winds: from the N (10 degrees) at 12 MPH (10 knots; 5.1 m/s)
Visibility: 6 or more miles 10+ km)
Ceiling: at least 12,000 feet AGL
Clouds: few clouds at 1000 feet AGL
scattered clouds at 2000 feet AGL
Weather: no significant weather forecast for this period

 AIRPORT MAP

 RUNWAY INFORMATION
Runway 01L Runway length 7710 ft Runway width 148 ft
Runway elevation 277 ft Runway displaced threshold 0 ft Runway heading 9
Runway 19R Runway length 7710 ft Runway width 148 ft
Runway elevation 298 ft Runway displaced threshold 0 ft Runway heading 189
Runway 01R Runway length 6890 ft Runway width 148 ft
Runway elevation 272 ft Runway displaced threshold 0 ft Runway heading 9
Runway 19L Runway length 6890 ft Runway width 148 ft
Runway elevation 298 ft Runway displaced threshold 0 ft Runway heading 189

 AIRPORT FREQUENCIES
Type APP Name APP Frequency 119.65 MHZ
Type ATIS Name ATIS Frequency 112.6 MHZ
Type GND Name GND Frequency 121.75 MHZ
Type TWR Name TWR Frequency 118.2 MHZ

 AIRPORT NEAR NAVIGATION AIDS
Type VOR-DME Name Menorca Frequency 112600 KHZ
Type NDB Name Menorca Frequency 344 KHZ



Powered by Virtual Airlines Manager [v2.6.2]